createdAt,value
2022-08-17T00:00:43.381Z,78.71
2022-08-17T00:01:51.730Z,78.81
2022-08-17T00:03:40.315Z,78.61
2022-08-17T00:04:40.344Z,78.61
2022-08-17T00:06:44.424Z,78.52
2022-08-17T00:07:44.459Z,78.61
2022-08-17T00:09:37.629Z,78.71
2022-08-17T00:10:37.665Z,78.61
2022-08-17T00:12:44.532Z,78.91
2022-08-17T00:13:41.778Z,78.58
2022-08-17T00:15:34.938Z,78.91
2022-08-17T00:16:56.177Z,79.25
2022-08-17T00:19:01.650Z,79.16
2022-08-17T00:19:39.079Z,79.25
2022-08-17T00:22:32.059Z,79.00
2022-08-17T00:22:36.457Z,78.91
2022-08-17T00:24:36.372Z,79.00
2022-08-17T00:25:36.395Z,79.16
2022-08-17T00:27:40.496Z,79.45
2022-08-17T00:28:40.523Z,79.54
2022-08-17T00:30:53.001Z,79.06
2022-08-17T00:31:33.738Z,79.35
2022-08-17T00:33:27.378Z,79.25
2022-08-17T00:34:27.889Z,80.12
2022-08-17T00:36:20.128Z,79.83
2022-08-17T00:37:20.161Z,79.74
2022-08-17T00:39:13.358Z,79.83
2022-08-17T00:40:13.450Z,79.93
2022-08-17T00:42:17.444Z,79.06
2022-08-17T00:43:17.475Z,79.06
2022-08-17T00:45:10.463Z,79.35
2022-08-17T00:46:10.487Z,79.83
2022-08-17T00:48:29.028Z,79.80
2022-08-17T00:49:14.612Z,79.22
2022-08-17T00:51:07.794Z,79.50
2022-08-17T00:52:11.683Z,79.22
2022-08-17T00:54:11.922Z,79.50
2022-08-17T00:55:11.964Z,79.02
2022-08-17T00:57:05.172Z,79.22
2022-08-17T00:58:05.164Z,79.89
2022-08-17T01:00:09.265Z,79.89
2022-08-17T01:01:09.358Z,79.60
2022-08-17T01:03:13.354Z,79.70
2022-08-17T01:04:13.374Z,79.60
2022-08-17T01:06:06.548Z,79.50
2022-08-17T01:07:06.581Z,79.89
2022-08-17T01:09:10.666Z,79.80
2022-08-17T01:10:59.176Z,79.60
2022-08-17T01:12:03.901Z,79.70
2022-08-17T01:13:03.902Z,79.99
2022-08-17T01:14:56.888Z,80.08
2022-08-17T01:15:56.923Z,80.28
2022-08-17T01:17:50.094Z,80.38
2022-08-17T01:18:50.129Z,80.95
2022-08-17T01:20:48.159Z,80.95
2022-08-17T01:21:43.346Z,80.95
2022-08-17T01:23:47.449Z,80.95
2022-08-17T01:24:47.439Z,80.95
2022-08-17T01:26:51.535Z,80.86
2022-08-17T01:27:51.545Z,80.86
2022-08-17T01:29:55.646Z,81.44
2022-08-17T01:30:58.987Z,81.44
2022-08-17T01:32:49.045Z,81.92
2022-08-17T01:33:48.847Z,81.34
2022-08-17T01:35:52.954Z,81.73
2022-08-17T01:36:52.985Z,81.53
2022-08-17T01:38:57.064Z,81.92
2022-08-17T01:39:57.164Z,81.34
2022-08-17T01:41:50.277Z,81.44
2022-08-17T01:42:50.640Z,81.73
2022-08-17T01:44:45.790Z,81.24
2022-08-17T01:45:43.323Z,81.11
2022-08-17T01:47:47.435Z,81.20
2022-08-17T01:48:47.675Z,81.44
2022-08-17T01:50:51.476Z,81.30
2022-08-17T01:51:51.508Z,81.24
2022-08-17T01:53:44.683Z,80.53
2022-08-17T01:54:44.715Z,80.53
2022-08-17T01:56:48.793Z,80.72
2022-08-17T01:57:48.824Z,80.53
2022-08-17T01:59:52.887Z,80.53
2022-08-17T02:01:00.923Z,80.33
2022-08-17T02:02:57.025Z,81.01
2022-08-17T02:04:00.544Z,80.53
2022-08-17T02:05:50.219Z,80.91
2022-08-17T02:06:53.225Z,81.01
2022-08-17T02:09:02.448Z,81.01
2022-08-17T02:09:54.381Z,80.53
2022-08-17T02:11:58.440Z,81.40
2022-08-17T02:12:58.483Z,81.30
2022-08-17T02:14:51.449Z,81.01
2022-08-17T02:15:51.482Z,80.53
2022-08-17T02:17:55.559Z,80.91
2022-08-17T02:18:55.571Z,80.53
2022-08-17T02:20:59.692Z,81.20
2022-08-17T02:21:59.693Z,81.40
2022-08-17T02:24:03.818Z,81.40
2022-08-17T02:25:03.805Z,81.26
2022-08-17T02:27:07.883Z,81.26
2022-08-17T02:28:07.918Z,81.01
2022-08-17T02:31:00.282Z,81.16
2022-08-17T02:31:12.034Z,81.59
2022-08-17T02:33:16.101Z,81.49
2022-08-17T02:34:16.136Z,81.65
2022-08-17T02:36:09.353Z,81.26
2022-08-17T02:37:09.379Z,81.35
2022-08-17T02:39:02.577Z,81.35
2022-08-17T02:40:02.650Z,81.16
2022-08-17T02:42:06.621Z,81.35
2022-08-17T02:43:06.656Z,81.65
2022-08-17T02:44:59.646Z,81.35
2022-08-17T02:45:59.673Z,81.74
2022-08-17T02:47:52.843Z,81.65
2022-08-17T02:48:52.876Z,81.45
2022-08-17T02:50:46.048Z,81.16
2022-08-17T02:51:46.077Z,81.84
2022-08-17T02:53:50.206Z,82.23
2022-08-17T02:54:50.213Z,82.51
2022-08-17T02:56:43.415Z,82.32
2022-08-17T02:57:43.417Z,82.17
2022-08-17T02:59:49.112Z,82.32
2022-08-17T03:00:47.517Z,82.81
2022-08-17T03:02:40.720Z,82.81
2022-08-17T03:03:40.721Z,82.71
2022-08-17T03:05:44.789Z,83.29
2022-08-17T03:06:44.830Z,82.61
2022-08-17T03:08:38.039Z,82.61
2022-08-17T03:09:38.026Z,82.71
2022-08-17T03:11:31.353Z,82.51
2022-08-17T03:12:31.390Z,82.61
2022-08-17T03:14:40.728Z,83.39
2022-08-17T03:15:35.490Z,83.19
2022-08-17T03:17:39.598Z,83.00
2022-08-17T03:18:39.594Z,82.81
2022-08-17T03:20:32.793Z,83.00
2022-08-17T03:21:32.816Z,83.00
2022-08-17T03:23:26.016Z,83.39
2022-08-17T03:24:28.879Z,82.71
2022-08-17T03:26:19.202Z,83.00
2022-08-17T03:27:19.232Z,83.39
2022-08-17T03:29:23.325Z,83.48
2022-08-17T03:30:23.325Z,83.58
2022-08-17T03:32:16.499Z,83.58
2022-08-17T03:33:16.539Z,83.58
2022-08-17T03:35:09.539Z,83.48
2022-08-17T03:36:09.571Z,83.39
2022-08-17T03:38:15.835Z,83.00
2022-08-17T03:39:13.666Z,83.09
2022-08-17T03:41:06.868Z,83.58
2022-08-17T03:42:06.864Z,83.39
2022-08-17T03:44:00.046Z,83.00
2022-08-17T03:45:00.097Z,83.00
2022-08-17T03:46:53.302Z,82.90
2022-08-17T03:47:53.305Z,83.29
2022-08-17T03:49:57.368Z,83.19
2022-08-17T03:50:57.392Z,83.39
2022-08-17T03:52:51.890Z,83.00
2022-08-17T03:53:50.596Z,82.90
2022-08-17T03:55:54.665Z,83.00
2022-08-17T03:56:54.690Z,83.09
2022-08-17T03:58:47.863Z,82.90
2022-08-17T03:59:47.991Z,83.00
2022-08-17T04:01:51.999Z,83.09
2022-08-17T04:02:52.203Z,83.29
2022-08-17T04:04:45.007Z,82.90
2022-08-17T04:05:45.038Z,83.00
2022-08-17T04:07:49.110Z,82.96
2022-08-17T04:08:49.134Z,83.25
2022-08-17T04:10:53.211Z,83.25
2022-08-17T04:11:53.237Z,83.05
2022-08-17T04:13:46.428Z,82.86
2022-08-17T04:14:51.571Z,83.05
2022-08-17T04:16:50.528Z,83.15
2022-08-17T04:17:50.562Z,83.09
2022-08-17T04:19:43.771Z,83.58
2022-08-17T04:20:43.770Z,83.39
2022-08-17T04:22:47.879Z,83.34
2022-08-17T04:23:47.880Z,83.44
2022-08-17T04:25:41.089Z,83.44
2022-08-17T04:26:52.941Z,84.06
2022-08-17T04:28:45.148Z,83.77
2022-08-17T04:29:54.904Z,83.92
2022-08-17T04:31:38.361Z,83.77
2022-08-17T04:32:58.541Z,84.16
2022-08-17T04:34:31.402Z,84.06
2022-08-17T04:35:31.435Z,83.77
2022-08-17T04:37:24.609Z,84.11
2022-08-17T04:38:24.642Z,83.96
2022-08-17T04:40:17.921Z,84.06
2022-08-17T04:41:17.884Z,84.06
2022-08-17T04:43:22.000Z,84.16
2022-08-17T04:44:37.012Z,84.44
2022-08-17T04:46:15.222Z,83.77
2022-08-17T04:47:15.205Z,84.01
2022-08-17T04:49:08.380Z,84.44
2022-08-17T04:50:08.414Z,83.87
2022-08-17T04:52:04.584Z,83.96
2022-08-17T04:53:08.833Z,84.06
2022-08-17T04:54:54.626Z,83.67
2022-08-17T04:55:54.661Z,84.16
2022-08-17T04:57:47.842Z,83.58
2022-08-17T04:58:47.876Z,84.25
2022-08-17T05:00:41.049Z,83.96
2022-08-17T05:01:41.093Z,83.58
2022-08-17T05:03:34.251Z,83.48
2022-08-17T05:04:35.528Z,83.48
2022-08-17T05:06:27.482Z,83.19
2022-08-17T05:07:31.467Z,82.81
2022-08-17T05:09:20.661Z,83.00
2022-08-17T05:10:20.697Z,83.00
2022-08-17T05:12:24.768Z,82.90
2022-08-17T05:13:24.802Z,83.04
2022-08-17T05:15:17.775Z,82.94
2022-08-17T05:16:17.808Z,83.09
2022-08-17T05:18:21.892Z,83.23
2022-08-17T05:19:21.927Z,83.42
2022-08-17T05:21:25.994Z,82.94
2022-08-17T05:22:26.028Z,82.84
2022-08-17T05:24:42.879Z,82.65
2022-08-17T05:25:31.629Z,82.75
2022-08-17T05:27:36.002Z,82.56
2022-08-17T05:28:34.230Z,82.07
2022-08-17T05:30:38.334Z,82.36
2022-08-17T05:31:38.337Z,81.78
2022-08-17T05:33:31.502Z,82.07
2022-08-17T05:34:31.538Z,81.40
2022-08-17T05:36:42.950Z,81.59
2022-08-17T05:37:35.667Z,81.34
2022-08-17T05:39:28.899Z,81.44
2022-08-17T05:40:32.624Z,81.53
2022-08-17T05:42:32.963Z,81.53
2022-08-17T05:43:32.961Z,81.53
2022-08-17T05:45:55.532Z,81.44
2022-08-17T05:46:25.968Z,81.53
2022-08-17T05:48:19.140Z,81.44
2022-08-17T05:49:19.168Z,81.05
2022-08-17T05:51:23.335Z,81.44
2022-08-17T05:52:23.259Z,81.44
2022-08-17T05:54:27.319Z,81.44
2022-08-17T05:55:27.351Z,81.24
2022-08-17T05:57:31.516Z,81.29
2022-08-17T05:58:31.458Z,80.61
2022-08-17T06:00:30.101Z,80.90
2022-08-17T06:01:24.689Z,80.80
2022-08-17T06:02:24.699Z,80.41
2022-08-17T06:03:24.791Z,80.12
2022-08-17T06:04:24.818Z,80.22
2022-08-17T06:05:24.823Z,80.51
2022-08-17T06:06:25.118Z,80.03
2022-08-17T06:07:24.889Z,80.12
2022-08-17T06:08:24.926Z,80.12
2022-08-17T06:09:30.126Z,79.74
2022-08-17T06:10:25.022Z,79.45
2022-08-17T06:11:25.057Z,79.06
2022-08-17T06:12:25.083Z,79.16
2022-08-17T06:13:25.118Z,79.54
2022-08-17T06:14:25.158Z,79.10
2022-08-17T06:15:25.196Z,78.91
2022-08-17T06:16:26.219Z,78.77
2022-08-17T06:17:25.282Z,78.00
2022-08-17T06:18:25.326Z,77.84
2022-08-17T06:19:25.351Z,78.03
2022-08-17T06:20:25.394Z,78.23
2022-08-17T06:21:30.462Z,78.03
2022-08-17T06:22:25.474Z,78.13
2022-08-17T06:23:25.509Z,77.45
2022-08-17T06:24:25.554Z,77.65
2022-08-17T06:25:25.588Z,77.45
2022-08-17T06:26:28.720Z,77.45
2022-08-17T06:27:25.663Z,77.65
2022-08-17T06:28:25.714Z,77.65
2022-08-17T06:29:25.741Z,77.07
2022-08-17T06:30:25.803Z,76.87
2022-08-17T06:31:25.818Z,76.91
2022-08-17T06:32:25.857Z,76.82
2022-08-17T06:33:25.900Z,76.72
2022-08-17T06:34:25.941Z,76.82
2022-08-17T06:35:31.783Z,76.72
2022-08-17T06:36:26.016Z,76.91
2022-08-17T06:37:26.070Z,76.72
2022-08-17T06:38:37.267Z,76.62
2022-08-17T06:39:26.145Z,76.72
2022-08-17T06:40:26.171Z,75.95
2022-08-17T06:41:26.212Z,76.14
2022-08-17T06:43:04.010Z,75.65
2022-08-17T06:43:26.333Z,75.70
2022-08-17T06:44:42.294Z,75.60
2022-08-17T06:45:26.364Z,75.31
2022-08-17T06:46:26.401Z,75.21
2022-08-17T06:47:28.495Z,75.40
2022-08-17T06:48:26.485Z,75.02
2022-08-17T06:49:26.518Z,75.21
2022-08-17T06:50:26.582Z,75.21
2022-08-17T06:51:26.596Z,74.73
2022-08-17T06:52:45.777Z,74.82
2022-08-17T06:53:26.673Z,74.73
2022-08-17T06:54:26.717Z,74.38
2022-08-17T06:55:26.750Z,74.47
2022-08-17T06:56:26.796Z,74.47
2022-08-17T06:57:26.828Z,73.79
2022-08-17T06:58:29.542Z,73.79
2022-08-17T06:59:34.740Z,73.41
2022-08-17T07:00:27.048Z,73.02
2022-08-17T07:01:27.087Z,73.02
2022-08-17T07:02:29.132Z,72.73
2022-08-17T07:03:27.072Z,73.25
2022-08-17T07:04:27.106Z,72.92
2022-08-17T07:05:27.149Z,72.96
2022-08-17T07:06:27.210Z,72.86
2022-08-17T07:07:27.222Z,72.86
2022-08-17T07:08:30.554Z,72.47
2022-08-17T07:09:27.302Z,72.28
2022-08-17T07:10:27.339Z,71.89
2022-08-17T07:11:27.378Z,71.80
2022-08-17T07:12:27.419Z,71.70
2022-08-17T07:13:27.461Z,70.76
2022-08-17T07:14:27.499Z,70.83
2022-08-17T07:15:27.538Z,70.67
2022-08-17T07:16:27.577Z,70.57
2022-08-17T07:17:56.843Z,70.67
2022-08-17T07:18:27.658Z,70.57
2022-08-17T07:19:27.695Z,70.86
2022-08-17T07:20:27.736Z,69.60
2022-08-17T07:21:27.776Z,69.41
2022-08-17T07:22:27.816Z,70.51
2022-08-17T07:23:27.852Z,69.64
2022-08-17T07:24:29.986Z,69.83
2022-08-17T07:25:27.933Z,69.24
2022-08-17T07:26:27.972Z,68.96
2022-08-17T07:27:28.013Z,68.66
2022-08-17T07:28:28.053Z,67.60
2022-08-17T07:29:28.092Z,66.44
2022-08-17T07:30:28.132Z,66.24
2022-08-17T07:31:28.174Z,66.34
2022-08-17T07:32:28.211Z,66.37
2022-08-17T07:33:28.257Z,66.47
2022-08-17T07:34:29.269Z,66.76
2022-08-17T07:35:37.722Z,67.14
2022-08-17T07:36:30.208Z,67.05
2022-08-17T07:37:28.412Z,64.82
2022-08-17T07:38:28.576Z,64.56
2022-08-17T07:39:28.621Z,65.11
2022-08-17T07:40:28.592Z,66.30
2022-08-17T07:41:57.360Z,66.11
2022-08-17T07:42:28.612Z,64.65
2022-08-17T07:43:29.620Z,64.56
2022-08-17T07:44:28.690Z,65.05
2022-08-17T07:45:28.728Z,65.05
2022-08-17T07:46:28.800Z,64.36
2022-08-17T07:47:28.808Z,63.52
2022-08-17T07:48:28.853Z,63.04
2022-08-17T07:49:28.894Z,62.84
2022-08-17T07:50:28.931Z,62.94
2022-08-17T07:51:29.193Z,62.94
2022-08-17T07:52:50.552Z,63.13
2022-08-17T07:53:29.067Z,63.23
2022-08-17T07:54:29.105Z,63.17
2022-08-17T07:55:29.133Z,62.48
2022-08-17T07:56:29.177Z,60.74
2022-08-17T07:57:30.142Z,61.51
2022-08-17T07:58:29.257Z,60.83
2022-08-17T07:59:33.230Z,60.83
2022-08-17T08:00:32.311Z,59.59
2022-08-17T08:01:39.364Z,60.18
2022-08-17T08:02:31.900Z,60.77
2022-08-17T08:03:29.455Z,61.25
2022-08-17T08:05:48.718Z,61.83
2022-08-17T08:06:29.578Z,61.35
2022-08-17T08:07:29.616Z,61.74
2022-08-17T08:08:29.658Z,61.64
2022-08-17T08:09:29.697Z,61.44
2022-08-17T08:10:29.739Z,60.41
2022-08-17T08:11:29.788Z,60.99
2022-08-17T08:12:33.400Z,60.79
2022-08-17T08:13:29.876Z,60.41
2022-08-17T08:14:29.900Z,60.11
2022-08-17T08:15:30.056Z,60.11
2022-08-17T08:16:29.998Z,60.41
2022-08-17T08:17:30.021Z,60.63
2022-08-17T08:18:38.668Z,59.95
2022-08-17T08:19:30.102Z,60.02
2022-08-17T08:20:37.720Z,59.75
2022-08-17T08:21:30.188Z,58.78
2022-08-17T08:22:30.295Z,58.87
2022-08-17T08:23:30.280Z,58.49
2022-08-17T08:24:31.265Z,57.51
2022-08-17T08:25:30.368Z,58.03
2022-08-17T08:26:30.447Z,58.69
2022-08-17T08:27:30.430Z,58.22
2022-08-17T08:28:30.474Z,59.10
2022-08-17T08:29:30.515Z,58.42
2022-08-17T08:30:30.556Z,56.67
2022-08-17T08:31:30.597Z,53.36
2022-08-17T08:32:30.636Z,54.03
2022-08-17T08:33:30.677Z,53.67
2022-08-17T08:34:44.465Z,53.87
2022-08-17T08:35:30.826Z,53.67
2022-08-17T08:36:58.125Z,52.60
2022-08-17T08:37:35.769Z,53.28
2022-08-17T08:38:30.891Z,51.63
2022-08-17T08:39:31.007Z,52.24
2022-08-17T08:40:30.967Z,53.58
2022-08-17T08:41:31.153Z,54.75
2022-08-17T08:42:31.050Z,55.36
2022-08-17T08:43:31.089Z,52.92
2022-08-17T08:45:00.585Z,53.02
2022-08-17T08:45:31.174Z,54.97
2022-08-17T08:46:31.257Z,53.60
2022-08-17T08:47:31.265Z,53.80
2022-08-17T08:48:56.837Z,54.48
2022-08-17T08:50:01.301Z,55.26
2022-08-17T08:50:37.889Z,55.26
2022-08-17T08:51:31.422Z,55.07
2022-08-17T08:52:31.465Z,53.70
2022-08-17T08:53:31.509Z,52.75
2022-08-17T08:54:31.547Z,51.48
2022-08-17T08:55:31.645Z,52.46
2022-08-17T08:56:31.637Z,51.58
2022-08-17T08:57:34.508Z,51.09
2022-08-17T08:58:41.101Z,50.41
2022-08-17T08:59:31.758Z,50.53
2022-08-17T09:00:31.796Z,52.29
2022-08-17T09:01:31.890Z,53.17
2022-08-17T09:02:34.621Z,52.78
2022-08-17T09:03:51.504Z,51.51
2022-08-17T09:04:44.974Z,53.56
2022-08-17T09:05:32.014Z,53.56
2022-08-17T09:06:38.744Z,53.95
2022-08-17T09:07:32.090Z,53.95
2022-08-17T09:08:32.133Z,50.75
2022-08-17T09:09:32.181Z,50.56
2022-08-17T09:10:32.217Z,50.75
2022-08-17T09:11:32.285Z,50.16
2022-08-17T09:12:32.303Z,49.90
2022-08-17T09:13:32.343Z,49.02
2022-08-17T09:14:32.390Z,46.88
2022-08-17T09:15:32.429Z,47.66
2022-08-17T09:16:32.469Z,47.36
2022-08-17T09:17:32.512Z,47.28
2022-08-17T09:19:03.121Z,47.48
2022-08-17T09:19:32.596Z,45.62
2022-08-17T09:20:32.638Z,46.23
2022-08-17T09:21:33.950Z,45.65
2022-08-17T09:22:32.730Z,45.65
2022-08-17T09:23:32.766Z,46.43
2022-08-17T09:24:32.807Z,46.14
2022-08-17T09:25:32.849Z,46.33
2022-08-17T09:26:32.891Z,46.36
2022-08-17T09:27:32.937Z,45.28
2022-08-17T09:28:32.976Z,45.76
2022-08-17T09:29:33.020Z,45.97
2022-08-17T09:30:33.061Z,46.08
2022-08-17T09:31:33.533Z,46.37
2022-08-17T09:32:33.151Z,46.57
2022-08-17T09:33:33.188Z,45.89
2022-08-17T09:34:33.459Z,45.13
2022-08-17T09:35:37.317Z,45.13
2022-08-17T09:36:33.317Z,44.37
2022-08-17T09:37:33.361Z,43.88
2022-08-17T09:38:33.412Z,43.88
2022-08-17T09:39:33.492Z,43.88
2022-08-17T09:40:33.487Z,43.51
2022-08-17T09:41:33.538Z,43.21
2022-08-17T09:42:33.574Z,42.62
2022-08-17T09:43:33.617Z,43.02
2022-08-17T09:44:33.661Z,41.45
2022-08-17T09:45:33.704Z,41.64
2022-08-17T09:46:33.751Z,42.25
2022-08-17T09:47:33.792Z,41.35
2022-08-17T09:48:33.833Z,41.66
2022-08-17T09:49:33.881Z,41.96
2022-08-17T09:51:03.487Z,42.55
2022-08-17T09:51:33.965Z,42.18
2022-08-17T09:52:34.006Z,41.88
2022-08-17T09:53:34.052Z,41.29
2022-08-17T09:54:41.288Z,41.00
2022-08-17T09:55:34.139Z,41.19
2022-08-17T09:56:34.180Z,41.09
2022-08-17T09:57:34.231Z,41.02
2022-08-17T09:58:34.269Z,40.43
2022-08-17T09:59:38.436Z,39.64
2022-08-17T10:00:34.354Z,39.06
2022-08-17T10:01:34.446Z,38.76
2022-08-17T10:02:34.443Z,39.54
2022-08-17T10:03:34.513Z,40.03
2022-08-17T10:04:34.531Z,40.33
2022-08-17T10:05:34.576Z,39.84
2022-08-17T10:06:34.618Z,41.41
2022-08-17T10:07:34.663Z,41.43
2022-08-17T10:08:34.706Z,40.16
2022-08-17T10:09:34.753Z,40.35
2022-08-17T10:10:34.795Z,39.66
2022-08-17T10:11:34.839Z,40.25
2022-08-17T10:12:34.883Z,40.16
2022-08-17T10:13:34.928Z,39.56
2022-08-17T10:14:36.355Z,40.08
2022-08-17T10:15:35.016Z,39.47
2022-08-17T10:16:35.059Z,39.48
2022-08-17T10:17:35.107Z,39.58
2022-08-17T10:18:35.149Z,38.80
2022-08-17T10:19:35.194Z,38.60
2022-08-17T10:20:35.240Z,38.31
2022-08-17T10:21:35.283Z,38.70
2022-08-17T10:22:37.997Z,38.70
2022-08-17T10:23:35.369Z,39.19
2022-08-17T10:24:35.413Z,39.09
2022-08-17T10:25:53.622Z,39.11
2022-08-17T10:26:46.282Z,38.82
2022-08-17T10:27:35.555Z,39.01
2022-08-17T10:28:35.590Z,39.21
2022-08-17T10:29:40.798Z,38.72
2022-08-17T10:30:35.681Z,38.42
2022-08-17T10:31:36.349Z,38.62
2022-08-17T10:32:35.780Z,37.95
2022-08-17T10:33:35.815Z,37.95
2022-08-17T10:34:41.405Z,38.34
2022-08-17T10:35:35.906Z,38.34
2022-08-17T10:36:35.960Z,38.54
2022-08-17T10:37:35.998Z,38.84
2022-08-17T10:38:36.039Z,38.24
2022-08-17T10:39:36.109Z,38.44
2022-08-17T10:40:36.127Z,37.97
2022-08-17T10:41:40.171Z,37.77
2022-08-17T10:42:36.217Z,37.67
2022-08-17T10:43:36.261Z,37.38
2022-08-17T10:44:39.947Z,36.90
2022-08-17T10:45:36.352Z,37.10
2022-08-17T10:46:36.397Z,36.90
2022-08-17T10:47:54.724Z,37.10
2022-08-17T10:48:36.486Z,35.82
2022-08-17T10:49:36.542Z,36.33
2022-08-17T10:50:36.576Z,35.15
2022-08-17T10:51:36.621Z,35.92
2022-08-17T10:52:36.666Z,35.64
2022-08-17T10:53:43.919Z,35.84
2022-08-17T10:55:40.804Z,36.23
2022-08-17T10:56:40.892Z,35.35
2022-08-17T10:58:45.047Z,35.54
2022-08-17T10:59:45.086Z,35.84
2022-08-17T11:01:49.165Z,35.64
2022-08-17T11:02:49.617Z,34.86
2022-08-17T11:04:42.227Z,35.15
2022-08-17T11:05:44.046Z,35.94
2022-08-17T11:07:35.423Z,33.87
2022-08-17T11:08:35.458Z,33.08
2022-08-17T11:10:39.551Z,34.17
2022-08-17T11:11:39.581Z,34.46
2022-08-17T11:13:43.706Z,34.75
2022-08-17T11:14:43.717Z,35.54
2022-08-17T11:16:36.894Z,35.35
2022-08-17T11:17:36.952Z,34.28
2022-08-17T11:19:41.063Z,34.67
2022-08-17T11:20:41.059Z,34.48
2022-08-17T11:22:45.144Z,34.00
2022-08-17T11:23:45.182Z,34.59
2022-08-17T11:25:49.300Z,33.11
2022-08-17T11:26:49.311Z,33.22
2022-08-17T11:28:53.412Z,33.31
2022-08-17T11:30:00.841Z,33.51
2022-08-17T11:31:57.554Z,33.41
2022-08-17T11:32:57.606Z,33.80
2022-08-17T11:34:50.569Z,35.36
2022-08-17T11:35:50.612Z,34.97
2022-08-17T11:37:54.719Z,35.07
2022-08-17T11:38:54.727Z,34.48
2022-08-17T11:40:58.805Z,33.69
2022-08-17T11:41:58.846Z,33.10
2022-08-17T11:43:52.060Z,33.29
2022-08-17T11:44:52.070Z,32.31
2022-08-17T11:46:45.255Z,33.89
2022-08-17T11:47:57.189Z,33.79
2022-08-17T11:49:49.372Z,33.39
2022-08-17T11:50:49.411Z,33.98
2022-08-17T11:52:53.530Z,34.28
2022-08-17T11:54:08.696Z,33.29
2022-08-17T11:55:57.627Z,32.31
2022-08-17T11:56:57.667Z,32.21
2022-08-17T11:59:01.741Z,32.49
2022-08-17T12:00:01.781Z,33.28
2022-08-17T12:02:05.894Z,34.46
2022-08-17T12:03:05.948Z,33.18
2022-08-17T12:04:58.982Z,34.27
2022-08-17T12:05:58.979Z,34.17
2022-08-17T12:08:03.067Z,34.06
2022-08-17T12:09:03.109Z,33.67
2022-08-17T12:10:56.322Z,34.17
2022-08-17T12:12:12.962Z,34.75
2022-08-17T12:14:00.436Z,34.15
2022-08-17T12:15:15.927Z,34.17
2022-08-17T12:17:04.539Z,34.46
2022-08-17T12:18:04.571Z,34.27
2022-08-17T12:20:08.695Z,32.98
2022-08-17T12:21:08.699Z,33.08
2022-08-17T12:23:12.800Z,31.51
2022-08-17T12:24:12.837Z,31.80
2022-08-17T12:26:06.053Z,29.24
2022-08-17T12:27:06.066Z,31.01
2022-08-17T12:29:18.123Z,29.62
2022-08-17T12:30:10.182Z,30.51
2022-08-17T12:32:14.661Z,31.09
2022-08-17T12:33:24.992Z,31.87
2022-08-17T12:35:07.300Z,32.17
2022-08-17T12:36:07.336Z,32.95
2022-08-17T12:38:00.517Z,34.43
2022-08-17T12:39:14.128Z,33.94
2022-08-17T12:41:04.693Z,34.82
2022-08-17T12:42:04.693Z,34.43
2022-08-17T12:44:08.822Z,34.53
2022-08-17T12:45:08.842Z,35.11
2022-08-17T12:47:02.052Z,36.00
2022-08-17T12:48:02.053Z,35.80
2022-08-17T12:50:06.216Z,35.80
2022-08-17T12:51:06.174Z,34.53
2022-08-17T12:53:10.245Z,35.02
2022-08-17T12:54:10.289Z,35.11
2022-08-17T12:56:14.360Z,35.80
2022-08-17T12:57:14.400Z,35.80
2022-08-17T12:59:18.476Z,36.20
2022-08-17T13:00:18.514Z,36.49
2022-08-17T13:02:22.633Z,36.10
2022-08-17T13:03:22.671Z,36.69
2022-08-17T13:05:15.708Z,36.38
2022-08-17T13:06:15.715Z,35.99
2022-08-17T13:08:19.858Z,36.40
2022-08-17T13:09:19.871Z,36.00
2022-08-17T13:11:23.958Z,35.61
2022-08-17T13:12:23.993Z,35.71
2022-08-17T13:14:28.181Z,35.39
2022-08-17T13:15:28.113Z,36.57
2022-08-17T13:17:21.291Z,37.07
2022-08-17T13:18:21.333Z,36.38
2022-08-17T13:20:25.442Z,36.85
2022-08-17T13:21:25.449Z,37.36
2022-08-17T13:23:29.536Z,36.38
2022-08-17T13:24:29.567Z,36.26
2022-08-17T13:26:33.715Z,37.15
2022-08-17T13:27:33.717Z,37.34
2022-08-17T13:29:37.789Z,37.74
2022-08-17T13:30:37.834Z,37.72
2022-08-17T13:32:43.893Z,37.62
2022-08-17T13:33:44.655Z,38.03
2022-08-17T13:35:50.260Z,37.72
2022-08-17T13:36:46.084Z,37.52
2022-08-17T13:38:50.160Z,37.92
2022-08-17T13:39:50.238Z,37.99
2022-08-17T13:41:54.345Z,37.82
2022-08-17T13:42:54.493Z,38.01
2022-08-17T13:44:47.388Z,37.60
2022-08-17T13:45:50.589Z,37.72
2022-08-17T13:47:51.765Z,37.92
2022-08-17T13:48:51.540Z,38.11
2022-08-17T13:50:55.611Z,38.48
2022-08-17T13:51:55.662Z,38.31
2022-08-17T13:53:59.762Z,38.09
2022-08-17T13:54:59.770Z,37.70
2022-08-17T13:57:03.853Z,37.70
2022-08-17T13:58:06.719Z,37.90
2022-08-17T14:00:07.955Z,38.09
2022-08-17T14:01:08.032Z,38.29
2022-08-17T14:03:12.074Z,38.48
2022-08-17T14:04:12.113Z,38.78
2022-08-17T14:06:51.471Z,38.98
2022-08-17T14:07:16.220Z,38.78
2022-08-17T14:09:20.291Z,38.19
2022-08-17T14:10:20.329Z,37.90
2022-08-17T14:12:24.433Z,36.40
2022-08-17T14:13:24.440Z,37.58
2022-08-17T14:15:17.470Z,38.37
2022-08-17T14:16:17.478Z,38.46
2022-08-17T14:18:31.182Z,38.17
2022-08-17T14:19:21.602Z,38.37
2022-08-17T14:21:25.785Z,38.37
2022-08-17T14:22:25.717Z,38.17
2022-08-17T14:24:29.822Z,37.68
2022-08-17T14:25:29.864Z,37.88
2022-08-17T14:27:23.106Z,38.56
2022-08-17T14:28:23.093Z,38.76
2022-08-17T14:30:28.951Z,38.66
2022-08-17T14:31:27.214Z,39.45
2022-08-17T14:33:31.350Z,38.85
2022-08-17T14:34:31.325Z,38.37
2022-08-17T14:36:35.430Z,38.07
2022-08-17T14:37:35.473Z,37.98
2022-08-17T14:39:39.806Z,38.07
2022-08-17T14:40:39.583Z,38.27
2022-08-17T14:42:43.662Z,38.37
2022-08-17T14:43:43.700Z,38.56
2022-08-17T14:45:47.791Z,38.46
2022-08-17T14:46:47.834Z,38.17
2022-08-17T14:48:56.658Z,37.68
2022-08-17T14:49:51.982Z,37.29
2022-08-17T14:51:56.058Z,37.98
2022-08-17T14:52:56.094Z,38.07
2022-08-17T14:54:49.109Z,35.42
2022-08-17T14:55:49.142Z,35.62
2022-08-17T14:57:42.324Z,36.01
2022-08-17T14:58:42.366Z,37.09
2022-08-17T15:00:46.452Z,35.31
2022-08-17T15:01:46.555Z,33.84
2022-08-17T15:03:50.587Z,35.50
2022-08-17T15:04:50.630Z,35.60
2022-08-17T15:06:54.715Z,36.78
2022-08-17T15:07:54.767Z,35.19
2022-08-17T15:09:47.936Z,35.88
2022-08-17T15:10:47.974Z,36.08
2022-08-17T15:12:52.448Z,37.25
2022-08-17T15:13:53.329Z,37.45
2022-08-17T15:15:56.163Z,37.54
2022-08-17T15:16:56.204Z,36.96
2022-08-17T15:19:00.678Z,37.35
2022-08-17T15:20:00.516Z,35.68
2022-08-17T15:22:04.397Z,37.54
2022-08-17T15:23:04.435Z,37.54
2022-08-17T15:24:57.423Z,37.73
2022-08-17T15:25:57.459Z,38.33
2022-08-17T15:28:01.565Z,39.09
2022-08-17T15:29:01.571Z,39.09
2022-08-17T15:31:05.678Z,39.49
2022-08-17T15:32:05.710Z,38.90
2022-08-17T15:34:09.793Z,39.19
2022-08-17T15:35:09.830Z,38.90
2022-08-17T15:37:13.908Z,39.00
2022-08-17T15:38:13.950Z,39.29
2022-08-17T15:40:07.191Z,39.29
2022-08-17T15:41:07.201Z,39.78
2022-08-17T15:43:00.383Z,39.59
2022-08-17T15:44:00.387Z,39.59
2022-08-17T15:45:59.800Z,39.69
2022-08-17T15:46:53.607Z,39.49
2022-08-17T15:48:57.684Z,39.56
2022-08-17T15:50:00.136Z,39.66
2022-08-17T15:50:57.767Z,39.66
2022-08-17T15:51:57.811Z,39.96
2022-08-17T15:52:57.903Z,39.86
2022-08-17T15:53:57.899Z,39.56
2022-08-17T15:54:57.943Z,37.51
2022-08-17T15:55:57.986Z,36.33
2022-08-17T15:56:58.031Z,36.53
2022-08-17T15:57:58.077Z,37.02
2022-08-17T15:58:58.122Z,37.12
2022-08-17T15:59:58.943Z,36.53
2022-08-17T16:01:14.882Z,37.02
2022-08-17T16:03:14.596Z,37.51
2022-08-17T16:03:14.821Z,37.61
2022-08-17T16:04:01.406Z,35.65
2022-08-17T16:04:58.436Z,35.45
2022-08-17T16:05:58.427Z,35.85
2022-08-17T16:06:58.490Z,36.04
2022-08-17T16:07:58.515Z,35.45
2022-08-17T16:08:58.560Z,34.57
2022-08-17T16:09:58.613Z,35.25
2022-08-17T16:10:58.648Z,35.94
2022-08-17T16:11:58.699Z,36.41
2022-08-17T16:12:58.735Z,37.51
2022-08-17T16:13:58.779Z,37.49
2022-08-17T16:14:58.825Z,37.49
2022-08-17T16:15:58.867Z,36.33
2022-08-17T16:16:58.913Z,37.12
2022-08-17T16:17:58.956Z,37.41
2022-08-17T16:18:59.225Z,37.59
2022-08-17T16:19:59.041Z,36.33
2022-08-17T16:20:59.087Z,35.04
2022-08-17T16:21:59.132Z,35.53
2022-08-17T16:22:59.175Z,35.44
2022-08-17T16:23:59.219Z,36.41
2022-08-17T16:24:59.262Z,36.02
2022-08-17T16:25:59.309Z,35.93
2022-08-17T16:26:59.354Z,36.51
2022-08-17T16:27:59.393Z,36.41
2022-08-17T16:28:59.439Z,36.71
2022-08-17T16:29:59.484Z,37.10
2022-08-17T16:30:59.529Z,37.59
2022-08-17T16:31:59.569Z,37.59